createdAt,value
2019-05-01T00:00:16.351Z,25.33
2019-05-01T00:06:16.102Z,23.07
2019-05-01T00:08:59.867Z,23.67
2019-05-01T00:11:43.594Z,22.70
2019-05-01T00:14:28.558Z,23.00
2019-05-01T00:17:13.112Z,23.03
2019-05-01T00:19:56.955Z,23.13
2019-05-01T00:22:42.168Z,22.00
2019-05-01T00:25:26.401Z,22.17
2019-05-01T00:28:11.404Z,22.25
2019-05-01T00:30:55.837Z,23.32
2019-05-01T00:33:40.018Z,22.80
2019-05-01T00:36:25.594Z,24.00
2019-05-01T00:39:12.505Z,23.77
2019-05-01T00:41:57.149Z,22.98
2019-05-01T00:44:42.015Z,22.58
2019-05-01T00:47:26.571Z,24.13
2019-05-01T00:50:10.670Z,22.30
2019-05-01T00:52:54.895Z,23.97
2019-05-01T01:05:10.819Z,22.33
2019-05-01T01:08:07.442Z,23.12
2019-05-01T01:10:51.218Z,21.73
2019-05-01T01:13:34.830Z,20.13
2019-05-01T01:16:18.968Z,20.80
2019-05-01T01:19:02.961Z,18.73
2019-05-01T01:21:47.448Z,20.77
2019-05-01T01:24:35.200Z,19.73
2019-05-01T01:27:26.510Z,19.57
2019-05-01T01:30:11.292Z,20.60
2019-05-01T01:32:55.338Z,20.05
2019-05-01T01:35:39.363Z,19.07
2019-05-01T01:38:23.543Z,21.00
2019-05-01T01:41:08.709Z,19.57
2019-05-01T01:44:11.591Z,19.57
2019-05-01T01:46:56.419Z,19.92
2019-05-01T01:49:40.361Z,19.73
2019-05-01T01:52:24.532Z,18.60
2019-05-01T01:55:09.707Z,18.60
2019-05-01T01:57:53.775Z,18.53
2019-05-01T02:01:08.889Z,18.57
2019-05-01T02:04:02.968Z,17.67
2019-05-01T02:06:45.873Z,18.43
2019-05-01T02:09:30.034Z,17.10
2019-05-01T02:12:14.336Z,18.70
2019-05-01T02:14:59.075Z,16.60
2019-05-01T02:17:44.859Z,17.03
2019-05-01T02:20:29.418Z,16.53
2019-05-01T02:23:13.651Z,16.65
2019-05-01T02:25:57.442Z,17.30
2019-05-01T02:31:48.256Z,17.37
2019-05-01T02:34:32.265Z,16.80
2019-05-01T02:37:16.426Z,16.50
2019-05-01T02:40:02.690Z,16.47
2019-05-01T02:42:47.697Z,16.75
2019-05-01T02:45:38.935Z,15.90
2019-05-01T02:48:35.595Z,14.63
2019-05-01T02:51:20.072Z,14.70
2019-05-01T02:54:04.688Z,14.93
2019-05-01T02:56:53.697Z,14.70
2019-05-01T02:59:38.446Z,13.80
2019-05-01T03:02:25.169Z,14.63
2019-05-01T03:05:09.448Z,15.50
2019-05-01T03:07:53.274Z,14.10
2019-05-01T03:10:37.287Z,14.50
2019-05-01T03:13:23.885Z,15.00
2019-05-01T03:16:08.238Z,14.27
2019-05-01T03:18:55.355Z,14.87
2019-05-01T03:21:45.002Z,14.80
2019-05-01T03:24:43.235Z,13.22
2019-05-01T03:27:27.571Z,13.63
2019-05-01T03:30:13.344Z,13.30
2019-05-01T03:32:57.864Z,12.47
2019-05-01T03:35:42.405Z,12.25
2019-05-01T03:38:27.016Z,13.23
2019-05-01T03:41:13.743Z,12.78
2019-05-01T03:43:58.579Z,13.90
2019-05-01T03:46:42.973Z,12.90
2019-05-01T03:49:26.887Z,13.67
2019-05-01T03:52:11.855Z,13.77
2019-05-01T03:54:57.174Z,13.40
2019-05-01T03:57:41.694Z,12.43
2019-05-01T04:03:39.184Z,13.10
2019-05-01T04:06:22.712Z,14.00
2019-05-01T04:09:07.318Z,13.60
2019-05-01T04:11:50.964Z,14.50
2019-05-01T04:14:38.875Z,14.53
2019-05-01T04:17:31.002Z,14.60
2019-05-01T04:20:15.330Z,14.77
2019-05-01T04:23:00.956Z,15.03
2019-05-01T04:25:45.669Z,15.10
2019-05-01T04:28:48.563Z,14.03
2019-05-01T04:31:51.507Z,15.27
2019-05-01T04:34:54.264Z,14.73
2019-05-01T04:37:38.443Z,14.07
2019-05-01T04:40:22.806Z,14.13
2019-05-01T04:43:07.236Z,13.77
2019-05-01T04:45:51.370Z,14.73
2019-05-01T04:48:36.396Z,13.30
2019-05-01T04:51:20.167Z,13.90
2019-05-01T04:54:04.537Z,14.47
2019-05-01T04:56:48.317Z,13.87
2019-05-01T04:59:33.699Z,12.63
2019-05-01T05:02:23.340Z,13.13
2019-05-01T05:05:07.935Z,13.20
2019-05-01T05:07:52.077Z,12.67
2019-05-01T05:10:37.406Z,13.33
2019-05-01T05:16:48.756Z,12.23
2019-05-01T05:19:32.308Z,12.10
2019-05-01T05:22:17.543Z,11.40
2019-05-01T05:25:02.108Z,10.73
2019-05-01T05:27:47.267Z,10.68
2019-05-01T05:30:31.769Z,10.73
2019-05-01T05:33:18.788Z,10.00
2019-05-01T05:36:03.898Z,10.10
2019-05-01T05:41:50.999Z,9.03
2019-05-01T05:44:43.040Z,8.93
2019-05-01T05:47:26.920Z,9.17
2019-05-01T05:50:12.880Z,9.43
2019-05-01T05:53:00.194Z,9.13
2019-05-01T05:55:48.013Z,8.53
2019-05-01T06:08:13.501Z,7.77
2019-05-01T06:11:16.094Z,7.67
2019-05-01T06:14:12.357Z,7.57
2019-05-01T06:17:18.564Z,8.37
2019-05-01T06:23:35.923Z,10.43
2019-05-01T06:26:39.618Z,10.23
2019-05-01T06:29:23.811Z,9.13
2019-05-01T06:32:07.749Z,8.00
2019-05-01T06:34:52.964Z,6.63
2019-05-01T06:44:02.240Z,7.77
2019-05-01T06:50:27.146Z,7.80
2019-05-01T06:53:11.032Z,7.15
2019-05-01T06:55:55.229Z,6.90
2019-05-01T06:58:39.340Z,6.93
2019-05-01T07:01:25.737Z,7.20
2019-05-01T07:04:10.061Z,5.70
2019-05-01T07:06:54.495Z,5.78
2019-05-01T07:09:38.606Z,4.87
2019-05-01T07:12:23.810Z,4.80
2019-05-01T07:15:08.640Z,4.47
2019-05-01T07:17:52.909Z,4.60
2019-05-01T07:20:56.278Z,4.50
2019-05-01T07:23:40.775Z,4.47
2019-05-01T07:26:26.168Z,4.45
2019-05-01T07:29:14.397Z,4.55
2019-05-01T07:32:01.705Z,4.80
2019-05-01T07:34:48.942Z,5.13
2019-05-01T07:37:32.713Z,5.17
2019-05-01T07:40:16.210Z,5.40
2019-05-01T07:49:13.147Z,5.10
2019-05-01T07:51:56.137Z,5.10
2019-05-01T07:54:42.382Z,5.10
2019-05-01T07:57:26.981Z,4.80
2019-05-01T08:03:16.267Z,5.17
2019-05-01T08:06:01.317Z,5.00
2019-05-01T08:08:47.001Z,5.27
2019-05-01T08:11:31.211Z,5.45
2019-05-01T08:14:16.518Z,5.70
2019-05-01T08:17:04.250Z,5.43
2019-05-01T08:20:09.858Z,6.30
2019-05-01T08:22:55.077Z,5.83
2019-05-01T08:25:39.586Z,5.30
2019-05-01T08:35:03.206Z,5.23
2019-05-01T08:38:00.328Z,5.47
2019-05-01T08:40:46.001Z,5.77
2019-05-01T08:47:07.581Z,5.50
2019-05-01T08:53:06.973Z,7.40
2019-05-01T08:55:54.343Z,6.97
2019-05-01T09:05:29.156Z,8.37
2019-05-01T09:08:10.809Z,7.70
2019-05-01T09:11:00.238Z,7.67
2019-05-01T09:13:42.198Z,7.13
2019-05-01T09:16:28.383Z,7.33
2019-05-01T09:19:12.739Z,7.23
2019-05-01T09:21:57.565Z,6.60
2019-05-01T09:24:43.025Z,7.05
2019-05-01T09:27:46.757Z,6.83
2019-05-01T09:43:30.895Z,6.50
2019-05-01T09:46:18.826Z,5.93
2019-05-01T09:49:09.569Z,6.07
2019-05-01T10:01:32.935Z,6.27
2019-05-01T10:04:18.101Z,6.30
2019-05-01T10:10:13.150Z,6.60
2019-05-01T10:16:14.237Z,6.70
2019-05-01T10:35:41.830Z,5.10
2019-05-01T10:38:18.053Z,5.67
2019-05-01T10:50:28.455Z,6.30
2019-05-01T10:53:18.738Z,6.70
2019-05-01T11:02:22.340Z,6.10
2019-05-01T11:18:23.786Z,5.83
2019-05-01T12:20:23.073Z,7.13
2019-05-01T12:23:09.893Z,6.65
2019-05-01T12:32:35.559Z,7.03
2019-05-01T12:55:51.168Z,9.13
2019-05-01T13:29:29.142Z,10.28
2019-05-01T13:32:56.319Z,9.35
2019-05-01T13:35:43.097Z,10.63
2019-05-01T13:38:30.281Z,9.70
2019-05-01T13:41:15.515Z,9.87
2019-05-01T13:43:59.772Z,9.33
2019-05-01T13:46:44.724Z,9.80
2019-05-01T13:49:29.933Z,10.23
2019-05-01T13:52:13.676Z,10.03
2019-05-01T13:54:57.614Z,11.20
2019-05-01T13:57:41.478Z,10.83
2019-05-01T14:03:29.919Z,10.30
2019-05-01T14:06:02.520Z,11.00
2019-05-01T14:08:46.748Z,10.10
2019-05-01T14:11:30.850Z,10.47
2019-05-01T14:14:14.940Z,10.53
2019-05-01T14:17:01.300Z,10.93
2019-05-01T14:19:49.051Z,11.40
2019-05-01T14:22:57.555Z,10.77
2019-05-01T14:26:03.379Z,11.07
2019-05-01T14:28:48.215Z,10.10
2019-05-01T14:31:32.764Z,10.10
2019-05-01T14:34:17.375Z,10.90
2019-05-01T14:37:02.214Z,9.03
2019-05-01T14:39:45.963Z,9.80
2019-05-01T14:42:19.017Z,10.00
2019-05-01T14:45:04.231Z,8.67
2019-05-01T14:47:48.065Z,8.70
2019-05-01T14:50:31.724Z,8.07
2019-05-01T14:53:16.045Z,8.00
2019-05-01T14:56:03.654Z,8.45
2019-05-01T14:58:47.939Z,8.20
2019-05-01T15:01:31.683Z,7.90
2019-05-01T15:04:16.463Z,8.38
2019-05-01T15:07:02.327Z,9.00
2019-05-01T15:09:47.002Z,8.33
2019-05-01T15:12:32.127Z,8.48
2019-05-01T15:15:35.091Z,8.83
2019-05-01T15:18:24.220Z,8.90
2019-05-01T15:21:08.474Z,9.00
2019-05-01T15:23:53.976Z,8.80
2019-05-01T15:26:39.816Z,10.58
2019-05-01T15:29:23.394Z,9.83
2019-05-01T15:32:07.638Z,9.70
2019-05-01T15:34:51.950Z,10.00
2019-05-01T15:37:38.874Z,10.47
2019-05-01T15:40:42.203Z,10.90
2019-05-01T15:43:31.368Z,10.30
2019-05-01T15:46:15.914Z,9.27
2019-05-01T15:49:02.029Z,9.50
2019-05-01T15:51:45.728Z,9.03
2019-05-01T15:54:29.786Z,9.50
2019-05-01T15:57:13.770Z,8.90
2019-05-01T15:59:57.798Z,9.30
2019-05-01T16:05:25.973Z,10.00
2019-05-01T16:08:10.517Z,9.50
2019-05-01T16:13:57.512Z,9.90
2019-05-01T16:16:41.816Z,8.68
2019-05-01T16:19:26.151Z,9.90
2019-05-01T16:22:10.345Z,9.50
2019-05-01T16:24:54.896Z,9.80
2019-05-01T16:27:38.838Z,9.83
2019-05-01T16:30:25.939Z,9.70
2019-05-01T16:33:10.480Z,9.50
2019-05-01T16:35:54.495Z,8.57
2019-05-01T16:41:57.603Z,8.93
2019-05-01T16:44:42.120Z,9.30
2019-05-01T16:47:25.676Z,10.27
2019-05-01T16:50:10.307Z,9.50
2019-05-01T16:52:54.226Z,8.77
2019-05-01T16:55:37.979Z,11.88
2019-05-01T16:58:23.917Z,10.37
2019-05-01T17:01:12.778Z,9.73
2019-05-01T17:07:45.763Z,10.33
2019-05-01T17:10:34.106Z,10.17
2019-05-01T17:13:19.003Z,10.17
2019-05-01T17:16:02.994Z,9.73
2019-05-01T17:18:47.098Z,9.90
2019-05-01T17:21:34.732Z,10.67
2019-05-01T17:24:19.407Z,10.30
2019-05-01T17:27:03.877Z,10.00
2019-05-01T17:29:51.744Z,10.47
2019-05-01T17:32:39.759Z,10.33
2019-05-01T17:35:22.194Z,10.83
2019-05-01T17:38:06.849Z,10.50
2019-05-01T17:40:52.488Z,10.33
2019-05-01T17:43:39.024Z,10.20
2019-05-01T17:46:23.617Z,11.17
2019-05-01T17:49:09.311Z,11.17
2019-05-01T17:51:57.337Z,10.80
2019-05-01T17:54:41.670Z,10.68
2019-05-01T17:57:26.113Z,11.73
2019-05-01T18:00:29.455Z,11.30
2019-05-01T18:06:48.046Z,11.30
2019-05-01T18:09:44.988Z,10.73
2019-05-01T18:12:30.281Z,9.50
2019-05-01T18:15:16.474Z,9.17
2019-05-01T18:18:00.961Z,9.70
2019-05-01T18:20:45.032Z,9.93
2019-05-01T18:23:49.402Z,9.57
2019-05-01T18:27:08.927Z,9.00
2019-05-01T18:29:55.246Z,9.75
2019-05-01T18:32:47.417Z,9.07
2019-05-01T18:35:44.978Z,9.33
2019-05-01T18:44:47.321Z,10.73
2019-05-01T18:47:28.926Z,10.43
2019-05-01T18:50:15.166Z,10.70
2019-05-01T18:52:59.051Z,10.75
2019-05-01T18:55:42.770Z,8.90
2019-05-01T18:58:30.034Z,8.50
2019-05-01T19:01:18.154Z,8.30
2019-05-01T19:04:02.391Z,7.27
2019-05-01T19:06:50.873Z,7.42
2019-05-01T19:09:39.273Z,7.87
2019-05-01T19:12:23.530Z,7.80
2019-05-01T19:15:11.185Z,7.33
2019-05-01T19:18:08.726Z,7.78
2019-05-01T19:20:59.587Z,7.62
2019-05-01T19:23:39.308Z,8.50
2019-05-01T19:26:23.493Z,8.45
2019-05-01T19:29:09.603Z,8.27
2019-05-01T19:31:53.674Z,8.98
2019-05-01T19:34:39.132Z,7.73
2019-05-01T19:37:30.914Z,8.03
2019-05-01T19:40:24.949Z,7.93
2019-05-01T19:43:09.566Z,7.97
2019-05-01T19:45:53.123Z,8.03
2019-05-01T19:48:37.331Z,8.13
2019-05-01T19:51:24.139Z,8.13
2019-05-01T19:54:13.752Z,7.92
2019-05-01T19:56:46.093Z,7.90
2019-05-01T19:59:43.245Z,8.50
2019-05-01T20:02:26.921Z,8.10
2019-05-01T20:05:12.977Z,7.73
2019-05-01T20:07:57.879Z,7.93
2019-05-01T20:10:43.712Z,7.93
2019-05-01T20:13:28.061Z,7.53
2019-05-01T20:16:14.881Z,7.70
2019-05-01T20:18:58.940Z,7.97
2019-05-01T20:21:43.214Z,8.50
2019-05-01T20:24:26.864Z,8.17
2019-05-01T20:27:11.452Z,7.53
2019-05-01T20:29:55.949Z,7.30
2019-05-01T20:32:39.438Z,8.55
2019-05-01T20:35:23.811Z,8.63
2019-05-01T20:38:08.495Z,8.13
2019-05-01T20:40:52.386Z,8.67
2019-05-01T20:43:38.029Z,8.40
2019-05-01T20:46:25.948Z,9.07
2019-05-01T20:49:09.545Z,8.57
2019-05-01T20:51:53.377Z,8.10
2019-05-01T20:54:37.653Z,8.40
2019-05-01T21:00:28.391Z,6.85
2019-05-01T21:03:14.211Z,6.27
2019-05-01T21:09:14.150Z,7.13
2019-05-01T21:12:13.503Z,7.70
2019-05-01T21:14:58.203Z,7.60
2019-05-01T21:17:44.289Z,7.50
2019-05-01T21:20:28.763Z,7.77
2019-05-01T21:23:14.372Z,8.23
2019-05-01T21:25:58.628Z,7.30
2019-05-01T21:28:44.780Z,7.77
2019-05-01T21:31:27.888Z,7.77
2019-05-01T21:34:14.368Z,7.57
2019-05-01T21:36:58.317Z,7.08
2019-05-01T21:39:30.779Z,7.55
2019-05-01T21:42:15.874Z,7.60
2019-05-01T21:45:00.579Z,7.40
2019-05-01T21:47:45.167Z,7.78
2019-05-01T21:50:28.835Z,7.97
2019-05-01T21:53:13.353Z,7.57
2019-05-01T21:56:02.103Z,7.50
2019-05-01T21:58:45.244Z,7.77
2019-05-01T22:01:30.262Z,7.60
2019-05-01T22:04:15.098Z,7.10
2019-05-01T22:06:59.761Z,7.87
2019-05-01T22:09:45.770Z,7.93
2019-05-01T22:12:31.321Z,7.90
2019-05-01T22:30:46.454Z,8.53
2019-05-01T22:33:47.949Z,7.77
2019-05-01T22:36:32.985Z,8.03
2019-05-01T22:39:18.623Z,7.83
2019-05-01T22:42:03.050Z,8.03
2019-05-01T22:44:46.978Z,8.40
2019-05-01T22:47:30.666Z,7.50
2019-05-01T22:50:15.163Z,8.27
2019-05-01T22:52:59.126Z,7.90
2019-05-01T22:55:43.549Z,8.03
2019-05-01T22:58:27.736Z,8.00
2019-05-01T23:01:13.202Z,8.00
2019-05-01T23:04:02.344Z,7.40
2019-05-01T23:06:46.377Z,6.87
2019-05-01T23:09:32.764Z,7.30
2019-05-01T23:12:17.142Z,7.10
2019-05-01T23:14:49.918Z,7.70
2019-05-01T23:17:40.745Z,7.07
2019-05-01T23:20:34.746Z,7.50
2019-05-01T23:23:24.723Z,7.85
2019-05-01T23:26:11.701Z,7.83
2019-05-01T23:28:43.461Z,8.17
2019-05-01T23:31:38.774Z,8.40
2019-05-01T23:34:26.231Z,7.70
2019-05-01T23:37:09.051Z,7.33
2019-05-01T23:39:54.486Z,8.03
2019-05-01T23:42:48.223Z,7.72
2019-05-01T23:45:37.818Z,7.70
2019-05-01T23:48:22.061Z,7.80
2019-05-01T23:51:06.094Z,7.33
2019-05-01T23:53:50.753Z,7.62
2019-05-01T23:56:36.280Z,7.67
2019-05-01T23:59:19.876Z,8.70
